CMB865 Details

Departure: Elmendorf Air Force Base (PAED)
Arrival: Travis Air Force Base (KSUU)
Route: TED V440 MDO J804R FRIED TR19 YZP Q801 YAZ J501 TOU ELMAA Q1 TOCOS SUTHU1
Notes: USTRANSCOM CONTRACT FLIGHT


Current Weather Information
PAED 251056Z AUTO 00000KT 10SM CLR 09/03 A3014 RMK AO2 SLP202 T00910026
KSUU 251058Z AUTO 23016G23KT 10SM OVC009 12/10 A2978 RMK AO2 PK WND 23028/13 SLP091 T01230098 $